Terminal Aerodrome Forecast
Issued by NWS

Home | Current Version | Previous Version | Text Only | Print | Product List | Glossary On
Versions: 1 2 3 4 5 6 7 8 9 10 11 12 13
860
FTUS44 KLIX 220320 AAA
TAFGPT
TAF AMD
KGPT 220320Z 2203/2224 12009KT P6SM OVC010
     FM221200 14010G18KT P6SM VCSH OVC010
     FM221500 16013G22KT 5SM SHRA VCTS OVC010CB
     FM222000 18014G22KT P6SM VCSH OVC020
     FM222300 20012G22KT P6SM BKN015=

USA.gov is the U.S. government's official web portal to all federal, state and local government web resources and services.